Time;durP1;ratioP1;P1;durP2;ratioP2;P2;SDS_P1;SDS_P2;PMS_P1;PMS_P2;Temp;Humidity;BMP_temperature;BMP_pressure;BME280_temperature;BME280_humidity;BME280_pressure;Samples;Min_cycle;Max_cycle;Signal;HPM_P1;HPM_P2
2023/05/04 00:00:31;;;;;;;;;;;;;;;;;;6162229;23;19924;-80
2023/05/04 00:02:58;;;;;;;;;;;;;;;;;;6138563;23;19943;-81
2023/05/04 00:05:25;;;;;;;;;;;;;;;;;;6191417;23;19908;-80
2023/05/04 00:07:51;;;;;;;;;;;;;;;;;;6185466;23;19948;-80
2023/05/04 00:10:21;;;;;;;;;;;;;;;;;;6160909;23;19915;-80
2023/05/04 00:12:49;;;;;;;;;;;;;;;;;;6168472;23;19921;-80
2023/05/04 00:15:19;;;;;;;;;;;;;;;;;;6139003;23;20281;-80
2023/05/04 00:17:46;;;;;;;;;;;;;;;;;;6163345;23;19928;-80
2023/05/04 00:20:13;;;;;;;;;;;;;;;;;;6161887;23;19920;-80
2023/05/04 00:22:40;;;;;;;;;;;;;;;;;;6161325;23;19920;-80
2023/05/04 00:25:07;;;;;;;;;;;;;;;;;;6138282;23;19920;-80
2023/05/04 00:27:37;;;;;;;;;;;;;;;;;;6162973;23;19920;-80
2023/05/04 00:30:06;;;;;;;;;;;;;;;;;;6138513;23;19924;-80
2023/05/04 00:32:33;;;;;;;;;;;;;;;;;;6163808;23;19924;-80
2023/05/04 00:35:01;;;;;;;;;;;;;;;;;;6160290;23;19928;-80
2023/05/04 00:37:28;;;;;;;;;;;;;;;;;;6164393;23;19924;-80
2023/05/04 00:39:55;;;;;;;;;;;;;;;;;;6167433;23;20264;-80
2023/05/04 00:42:22;;;;;;;;;;;;;;;;;;6173299;23;20355;-79
2023/05/04 00:44:49;;;;;;;;;;;;;;;;;;6140883;23;20229;-80
2023/05/04 00:47:18;;;;;;;;;;;;;;;;;;6137624;23;20252;-80
2023/05/04 00:49:45;;;;;;;;;;;;;;;;;;6163592;23;19921;-80
2023/05/04 00:52:13;;;;;;;;;;;;;;;;;;6136407;23;19921;-80
2023/05/04 00:54:40;;;;;;;;;;;;;;;;;;6136784;23;20359;-80
2023/05/04 00:57:07;;;;;;;;;;;;;;;;;;6159665;23;20257;-80
2023/05/04 00:59:36;;;;;;;;;;;;;;;;;;6161146;23;19920;-80
2023/05/04 01:02:03;;;;;;;;;;;;;;;;;;6161312;23;19925;-80
2023/05/04 01:04:34;;;;;;;;;;;;;;;;;;6135892;23;19924;-80
2023/05/04 01:07:04;;;;;;;;;;;;;;;;;;6135493;23;20261;-80
2023/05/04 01:09:31;;;;;;;;;;;;;;;;;;6162177;23;19921;-80
2023/05/04 01:12:00;;;;;;;;;;;;;;;;;;6159763;23;19924;-80
2023/05/04 01:14:27;;;;;;;;;;;;;;;;;;6135149;23;20142;-81
2023/05/04 01:16:54;;;;;;;;;;;;;;;;;;6160914;23;19924;-80
2023/05/04 01:19:22;;;;;;;;;;;;;;;;;;6137454;23;20356;-80
2023/05/04 01:21:50;;;;;;;;;;;;;;;;;;6137533;23;19920;-80
2023/05/04 01:24:19;;;;;;;;;;;;;;;;;;6173578;23;19920;-80
2023/05/04 01:26:47;;;;;;;;;;;;;;;;;;6137365;23;19920;-80
2023/05/04 01:29:16;;;;;;;;;;;;;;;;;;6137721;23;19924;-80
2023/05/04 01:31:43;;;;;;;;;;;;;;;;;;6163711;23;19926;-80
2023/05/04 01:34:13;;;;;;;;;;;;;;;;;;6164252;23;19926;-80
2023/05/04 01:36:40;;;;;;;;;;;;;;;;;;6163273;23;19927;-80
2023/05/04 01:39:10;;;;;;;;;;;;;;;;;;6189523;23;19928;-80
2023/05/04 01:41:38;;;;;;;;;;;;;;;;;;6173160;23;19924;-80
2023/05/04 01:44:05;;;;;;;;;;;;;;;;;;6164701;23;19946;-80
2023/05/04 01:46:32;;;;;;;;;;;;;;;;;;6137593;23;19920;-80
2023/05/04 01:49:00;;;;;;;;;;;;;;;;;;6164617;23;19921;-80
2023/05/04 01:51:29;;;;;;;;;;;;;;;;;;6138781;23;20257;-80
2023/05/04 01:53:57;;;;;;;;;;;;;;;;;;6136819;23;19921;-80
2023/05/04 01:56:25;;;;;;;;;;;;;;;;;;6164327;23;19920;-80
2023/05/04 01:58:52;;;;;;;;;;;;;;;;;;6163424;23;19927;-80
2023/05/04 02:01:21;;;;;;;;;;;;;;;;;;6139020;23;19920;-80
2023/05/04 02:03:48;;;;;;;;;;;;;;;;;;6139010;23;20101;-80
2023/05/04 02:06:16;;;;;;;;;;;;;;;;;;6163857;23;19924;-80
2023/05/04 02:08:45;;;;;;;;;;;;;;;;;;6137486;23;20352;-80
2023/05/04 02:11:15;;;;;;;;;;;;;;;;;;6137761;23;19920;-80
2023/05/04 02:13:43;;;;;;;;;;;;;;;;;;6138261;23;19924;-80
2023/05/04 02:16:10;;;;;;;;;;;;;;;;;;6163261;23;20105;-80
2023/05/04 02:18:39;;;;;;;;;;;;;;;;;;6137455;23;19920;-80
2023/05/04 02:21:06;;;;;;;;;;;;;;;;;;6136071;23;20271;-80
2023/05/04 02:23:36;;;;;;;;;;;;;;;;;;6162100;23;19920;-80
2023/05/04 02:26:05;;;;;;;;;;;;;;;;;;6139602;23;19928;-80
2023/05/04 02:28:32;;;;;;;;;;;;;;;;;;6138425;23;19920;-80
2023/05/04 02:31:00;;;;;;;;;;;;;;;;;;6138362;23;19920;-80
2023/05/04 02:33:27;;;;;;;;;;;;;;;;;;6162550;23;20341;-80
2023/05/04 02:35:54;;;;;;;;;;;;;;;;;;6162134;23;19924;-80
2023/05/04 02:38:21;;;;;;;;;;;;;;;;;;6190211;23;19927;-80
2023/05/04 02:40:48;;;;;;;;;;;;;;;;;;6136848;23;19920;-80
2023/05/04 02:43:16;;;;;;;;;;;;;;;;;;6138623;23;19924;-80
2023/05/04 02:45:43;;;;;;;;;;;;;;;;;;6163523;23;19927;-80
2023/05/04 02:48:11;;;;;;;;;;;;;;;;;;6137588;23;19926;-80
2023/05/04 02:50:38;;;;;;;;;;;;;;;;;;6137836;23;20340;-80
2023/05/04 02:53:05;;;;;;;;;;;;;;;;;;6137801;23;19928;-80
2023/05/04 02:55:32;;;;;;;;;;;;;;;;;;6139533;23;19920;-80
2023/05/04 02:57:59;;;;;;;;;;;;;;;;;;6138080;23;19924;-80
2023/05/04 03:00:26;;;;;;;;;;;;;;;;;;6162796;23;19920;-80
2023/05/04 03:02:53;;;;;;;;;;;;;;;;;;6162918;23;19921;-80
2023/05/04 03:05:21;;;;;;;;;;;;;;;;;;6138223;23;19920;-80
2023/05/04 03:07:48;;;;;;;;;;;;;;;;;;6168432;23;20363;-80
2023/05/04 03:10:15;;;;;;;;;;;;;;;;;;6138539;23;20265;-80
2023/05/04 03:12:43;;;;;;;;;;;;;;;;;;6138353;23;19921;-80
2023/05/04 03:15:12;;;;;;;;;;;;;;;;;;6139106;23;19920;-80
2023/05/04 03:17:40;;;;;;;;;;;;;;;;;;6162393;23;19926;-81
2023/05/04 03:20:08;;;;;;;;;;;;;;;;;;6162773;23;20333;-80
2023/05/04 03:22:37;;;;;;;;;;;;;;;;;;6160789;23;19924;-80
2023/05/04 03:25:05;;;;;;;;;;;;;;;;;;6137886;23;19920;-80
2023/05/04 03:27:36;;;;;;;;;;;;;;;;;;6162867;23;20349;-81
2023/05/04 03:30:06;;;;;;;;;;;;;;;;;;6138208;23;20288;-80
2023/05/04 03:32:35;;;;;;;;;;;;;;;;;;6160392;23;19924;-80
2023/05/04 03:35:05;;;;;;;;;;;;;;;;;;6138660;23;19943;-80
2023/05/04 03:37:32;;;;;;;;;;;;;;;;;;6163288;23;19920;-80
2023/05/04 03:40:01;;;;;;;;;;;;;;;;;;6163002;23;19924;-80
2023/05/04 03:42:31;;;;;;;;;;;;;;;;;;6171595;23;19924;-80
2023/05/04 03:45:00;;;;;;;;;;;;;;;;;;6137154;23;19920;-80
2023/05/04 03:47:27;;;;;;;;;;;;;;;;;;6160977;23;19928;-80
2023/05/04 03:49:54;;;;;;;;;;;;;;;;;;6189730;23;19920;-80
2023/05/04 03:52:23;;;;;;;;;;;;;;;;;;6137307;23;20280;-80
2023/05/04 03:54:50;;;;;;;;;;;;;;;;;;6138942;23;19936;-80
2023/05/04 03:57:21;;;;;;;;;;;;;;;;;;6136107;23;20387;-80
2023/05/04 03:59:48;;;;;;;;;;;;;;;;;;6163303;23;19943;-80
2023/05/04 04:02:15;;;;;;;;;;;;;;;;;;6137580;23;19924;-80
2023/05/04 04:04:45;;;;;;;;;;;;;;;;;;6163571;23;19921;-80
2023/05/04 04:07:12;;;;;;;;;;;;;;;;;;6137390;23;19920;-80
2023/05/04 04:09:39;;;;;;;;;;;;;;;;;;6162488;23;19927;-80
2023/05/04 04:12:06;;;;;;;;;;;;;;;;;;6163452;23;19924;-80
2023/05/04 04:14:35;;;;;;;;;;;;;;;;;;6137807;23;19924;-80
2023/05/04 04:17:02;;;;;;;;;;;;;;;;;;6163718;23;20261;-81
2023/05/04 04:19:28;;;;;;;;;;;;;;;;;;6163298;23;19925;-80
2023/05/04 04:21:57;;;;;;;;;;;;;;;;;;6163891;23;19920;-80
2023/05/04 04:24:30;;;;;;;;;;;;;;;;;;6137847;23;19920;-80
2023/05/04 04:26:57;;;;;;;;;;;;;;;;;;6137756;23;19927;-80
2023/05/04 04:29:25;;;;;;;;;;;;;;;;;;6164381;23;19920;-79
2023/05/04 04:31:53;;;;;;;;;;;;;;;;;;6174800;23;19926;-79
2023/05/04 04:34:21;;;;;;;;;;;;;;;;;;6164714;23;19920;-80
2023/05/04 04:36:50;;;;;;;;;;;;;;;;;;6137848;23;19921;-80
2023/05/04 04:39:21;;;;;;;;;;;;;;;;;;6189208;23;19921;-80
2023/05/04 04:41:48;;;;;;;;;;;;;;;;;;6162429;23;19926;-80
2023/05/04 04:44:15;;;;;;;;;;;;;;;;;;6134802;23;19924;-80
2023/05/04 04:46:43;;;;;;;;;;;;;;;;;;6161998;23;19925;-80
2023/05/04 04:49:12;;;;;;;;;;;;;;;;;;6189272;23;19920;-80
2023/05/04 04:51:39;;;;;;;;;;;;;;;;;;6137730;23;19924;-80
2023/05/04 04:54:07;;;;;;;;;;;;;;;;;;6161393;23;19942;-79
2023/05/04 04:56:34;;;;;;;;;;;;;;;;;;6115320;23;19920;-80
2023/05/04 04:59:01;;;;;;;;;;;;;;;;;;6140044;23;19927;-80
2023/05/04 05:01:30;;;;;;;;;;;;;;;;;;6162757;23;19921;-80
2023/05/04 05:03:59;;;;;;;;;;;;;;;;;;6201149;23;19920;-80
2023/05/04 05:06:28;;;;;;;;;;;;;;;;;;6164263;23;19946;-80
2023/05/04 05:08:57;;;;;;;;;;;;;;;;;;6140520;23;19920;-80
2023/05/04 05:11:24;;;;;;;;;;;;;;;;;;6138545;23;19920;-80
2023/05/04 05:13:53;;;;;;;;;;;;;;;;;;6165153;23;19924;-80
2023/05/04 05:16:21;;;;;;;;;;;;;;;;;;6189248;23;19927;-80
2023/05/04 05:18:50;;;;;;;;;;;;;;;;;;6192042;23;19926;-81
2023/05/04 05:21:17;;;;;;;;;;;;;;;;;;6165627;23;19921;-81
2023/05/04 05:23:46;;;;;;;;;;;;;;;;;;6140070;23;19920;-81
2023/05/04 05:26:13;;;;;;;;;;;;;;;;;;6140160;23;19920;-81
2023/05/04 05:28:40;;;;;;;;;;;;;;;;;;6164786;23;20220;-81
2023/05/04 05:31:10;;;;;;;;;;;;;;;;;;6165457;23;19921;-81
2023/05/04 05:33:39;;;;;;;;;;;;;;;;;;6117226;23;20285;-81
2023/05/04 05:36:08;;;;;;;;;;;;;;;;;;6192358;23;19924;-80
2023/05/04 05:38:37;;;;;;;;;;;;;;;;;;6162810;23;19920;-80
2023/05/04 05:41:05;;;;;;;;;;;;;;;;;;6165855;23;19930;-80
2023/05/04 05:43:37;;;;;;;;;;;;;;;;;;6140570;23;19920;-80
2023/05/04 05:46:06;;;;;;;;;;;;;;;;;;6201594;23;19928;-80
2023/05/04 05:48:36;;;;;;;;;;;;;;;;;;6139655;23;19921;-80
2023/05/04 05:51:03;;;;;;;;;;;;;;;;;;6138813;23;20252;-80
2023/05/04 05:53:30;;;;;;;;;;;;;;;;;;6165786;23;19935;-80
2023/05/04 05:55:58;;;;;;;;;;;;;;;;;;6165266;23;20256;-80
2023/05/04 05:58:26;;;;;;;;;;;;;;;;;;6190968;23;20265;-81
2023/05/04 06:00:53;;;;;;;;;;;;;;;;;;6164882;23;19920;-81
2023/05/04 06:03:22;;;;;;;;;;;;;;;;;;6165799;23;19927;-81
2023/05/04 06:05:51;;;;;;;;;;;;;;;;;;6142461;23;19920;-81
2023/05/04 06:08:20;;;;;;;;;;;;;;;;;;6190413;23;19924;-81
2023/05/04 06:10:48;;;;;;;;;;;;;;;;;;6141788;23;19927;-81
2023/05/04 06:13:15;;;;;;;;;;;;;;;;;;6141095;23;19920;-81
2023/05/04 06:15:45;;;;;;;;;;;;;;;;;;6142295;23;19930;-81
2023/05/04 06:18:12;;;;;;;;;;;;;;;;;;6139850;23;20378;-81
2023/05/04 06:20:43;;;;;;;;;;;;;;;;;;6167444;23;19924;-82
2023/05/04 06:23:10;;;;;;;;;;;;;;;;;;6141754;23;19920;-81
2023/05/04 06:25:40;;;;;;;;;;;;;;;;;;6192942;23;19924;-81
2023/05/04 06:28:09;;;;;;;;;;;;;;;;;;6164943;23;20261;-82
2023/05/04 06:30:38;;;;;;;;;;;;;;;;;;6166486;23;19920;-81
2023/05/04 06:33:07;;;;;;;;;;;;;;;;;;6142477;23;19926;-81
2023/05/04 06:35:34;;;;;;;;;;;;;;;;;;6166804;23;19920;-81
2023/05/04 06:38:01;;;;;;;;;;;;;;;;;;6172217;23;19920;-82
2023/05/04 06:40:30;;;;;;;;;;;;;;;;;;6187025;23;19928;-79
2023/05/04 06:42:57;;;;;;;;;;;;;;;;;;6169583;23;19920;-78
2023/05/04 06:45:24;;;;;;;;;;;;;;;;;;6144121;23;19927;-78
2023/05/04 06:47:53;;;;;;;;;;;;;;;;;;6163059;23;19921;-79
2023/05/04 06:50:24;;;;;;;;;;;;;;;;;;6189252;23;20282;-79
2023/05/04 06:53:01;;;;;;;;;;;;;;;;;;6163974;23;19927;-80
2023/05/04 06:55:28;;;;;;;;;;;;;;;;;;6139495;23;19920;-80
2023/05/04 06:57:55;;;;;;;;;;;;;;;;;;6163393;23;19926;-79
2023/05/04 07:00:22;;;;;;;;;;;;;;;;;;6163100;23;19921;-80
2023/05/04 07:02:54;;;;;;;;;;;;;;;;;;6135300;23;20349;-78
2023/05/04 07:05:25;;;;;;;;;;;;;;;;;;6157597;23;19921;-78
2023/05/04 07:07:55;;;;;;;;;;;;;;;;;;6163627;23;19924;-78
2023/05/04 07:10:24;;;;;;;;;;;;;;;;;;6157333;23;19920;-78
2023/05/04 07:12:53;;;;;;;;;;;;;;;;;;6156350;23;19920;-78
2023/05/04 07:15:20;;;;;;;;;;;;;;;;;;6157973;23;19920;-78
2023/05/04 07:17:47;;;;;;;;;;;;;;;;;;6155815;23;19924;-77
2023/05/04 07:27:14;;;;;;;;;;;;;;;;;;;;;
2023/05/04 07:34:00;;;;;;;;;;;;;;;;;;5976282;23;20266;-77
2023/05/04 07:36:27;;;;;;;;;;;;;;;;;;6047380;23;19925;-77
2023/05/04 07:38:54;;;;;;;;;;;;;;;;;;6151330;23;19920;-78
2023/05/04 07:41:21;;;;;;;;;;;;;;;;;;6154772;23;19920;-78
2023/05/04 07:43:48;;;;;;;;;;;;;;;;;;6177457;23;19935;-78
2023/05/04 07:46:15;;;;;;;;;;;;;;;;;;6154071;23;20292;-78
2023/05/04 07:48:42;;;;;;;;;;;;;;;;;;6130266;23;19927;-78
2023/05/04 07:51:13;;;;;;;;;;;;;;;;;;6152808;23;19921;-78
2023/05/04 07:56:50;;;;;;;;;;;;;;;;;;6156798;23;19927;-78
2023/05/04 07:59:17;;;;;;;;;;;;;;;;;;6156180;23;19924;-78
2023/05/04 08:01:45;;;;;;;;;;;;;;;;;;6156923;23;20326;-78
2023/05/04 08:04:12;;;;;;;;;;;;;;;;;;6131855;23;19924;-77
2023/05/04 08:06:40;;;;;;;;;;;;;;;;;;6157080;23;19921;-77
2023/05/04 08:09:08;;;;;;;;;;;;;;;;;;6181235;23;19924;-78
2023/05/04 08:11:36;;;;;;;;;;;;;;;;;;6131973;23;19927;-78
2023/05/04 08:14:03;;;;;;;;;;;;;;;;;;6156745;23;19928;-78
2023/05/04 08:16:31;;;;;;;;;;;;;;;;;;6131617;23;20265;-78
2023/05/04 08:18:59;;;;;;;;;;;;;;;;;;6156088;23;19920;-78
2023/05/04 08:21:27;;;;;;;;;;;;;;;;;;6155232;23;19925;-79
2023/05/04 08:23:55;;;;;;;;;;;;;;;;;;6183059;23;20329;-78
2023/05/04 08:26:23;;;;;;;;;;;;;;;;;;6132084;23;19920;-78
2023/05/04 08:28:50;;;;;;;;;;;;;;;;;;6130594;23;19920;-78
2023/05/04 08:31:17;;;;;;;;;;;;;;;;;;6157858;23;19924;-78
2023/05/04 08:33:45;;;;;;;;;;;;;;;;;;6159012;23;19946;-78
2023/05/04 08:36:19;;;;;;;;;;;;;;;;;;6132727;23;19927;-78
2023/05/04 08:39:14;;;;;;;;;;;;;;;;;;6190393;23;19942;-78
2023/05/04 08:41:42;;;;;;;;;;;;;;;;;;6187489;23;20252;-78
2023/05/04 08:44:10;;;;;;;;;;;;;;;;;;6188741;23;19927;-78
2023/05/04 08:46:37;;;;;;;;;;;;;;;;;;6212732;23;19942;-78
2023/05/04 08:49:04;;;;;;;;;;;;;;;;;;6182543;23;19931;-78
2023/05/04 08:51:32;;;;;;;;;;;;;;;;;;6184830;23;19920;-78
2023/05/04 08:53:59;;;;;;;;;;;;;;;;;;6215612;23;19919;-81
2023/05/04 08:56:30;;;;;;;;;;;;;;;;;;6256738;23;19919;-80
2023/05/04 08:59:00;;;;;;;;;;;;;;;;;;6232920;23;20359;-80
2023/05/04 09:01:27;;;;;;;;;;;;;;;;;;6198782;23;19924;-79
2023/05/04 09:03:54;;;;;;;;;;;;;;;;;;6199692;23;19920;-79
2023/05/04 09:06:22;;;;;;;;;;;;;;;;;;6228011;23;19926;-78
2023/05/04 09:08:49;;;;;;;;;;;;;;;;;;6204544;23;20368;-80
2023/05/04 09:11:18;;;;;;;;;;;;;;;;;;6196597;23;20291;-79
2023/05/04 09:13:46;;;;;;;;;;;;;;;;;;6199171;23;19926;-79
2023/05/04 09:16:16;;;;;;;;;;;;;;;;;;6197470;23;19927;-79
2023/05/04 09:18:49;;;;;;;;;;;;;;;;;;6196801;23;20251;-79
2023/05/04 09:21:42;;;;;;;;;;;;;;;;;;6198283;23;19920;-79
2023/05/04 09:24:12;;;;;;;;;;;;;;;;;;6198081;23;19920;-79
2023/05/04 09:26:41;;;;;;;;;;;;;;;;;;6149956;23;19942;-79
2023/05/04 09:29:13;;;;;;;;;;;;;;;;;;6197253;23;19920;-79
2023/05/04 09:31:44;;;;;;;;;;;;;;;;;;6195703;23;20490;-79
2023/05/04 09:34:15;;;;;;;;;;;;;;;;;;6198911;23;19920;-79
2023/05/04 09:36:42;;;;;;;;;;;;;;;;;;6224354;23;20333;-79
2023/05/04 09:39:11;;;;;;;;;;;;;;;;;;6172770;23;19920;-79
2023/05/04 09:41:39;;;;;;;;;;;;;;;;;;6195622;23;20259;-79
2023/05/04 09:44:10;;;;;;;;;;;;;;;;;;6197290;23;20367;-79
2023/05/04 09:46:41;;;;;;;;;;;;;;;;;;6198218;23;20264;-79
2023/05/04 09:49:21;;;;;;;;;;;;;;;;;;6197818;23;19924;-79
2023/05/04 09:51:48;;;;;;;;;;;;;;;;;;6206678;23;19923;-79
2023/05/04 09:54:17;;;;;;;;;;;;;;;;;;6197555;23;20345;-79
2023/05/04 09:57:10;;;;;;;;;;;;;;;;;;6196830;23;19920;-79
2023/05/04 09:59:42;;;;;;;;;;;;;;;;;;6196176;23;19930;-80
2023/05/04 10:02:13;;;;;;;;;;;;;;;;;;6194302;23;20230;-82
2023/05/04 10:04:48;;;;;;;;;;;;;;;;;;6195200;23;19928;-81
2023/05/04 10:07:22;;;;;;;;;;;;;;;;;;6196042;23;19935;-82
2023/05/04 10:09:52;;;;;;;;;;;;;;;;;;6171082;23;20256;-81
2023/05/04 10:12:21;;;;;;;;;;;;;;;;;;6194811;23;19920;-81
2023/05/04 10:14:50;;;;;;;;;;;;;;;;;;6195194;23;19926;-81
2023/05/04 10:17:21;;;;;;;;;;;;;;;;;;6196399;23;19920;-81
2023/05/04 10:19:52;;;;;;;;;;;;;;;;;;6233353;23;19923;-80
2023/05/04 10:22:28;;;;;;;;;;;;;;;;;;6198063;23;19920;-79
2023/05/04 10:25:12;;;;;;;;;;;;;;;;;;6198119;23;19920;-81
2023/05/04 10:27:43;;;;;;;;;;;;;;;;;;6198011;23;19920;-81
2023/05/04 10:30:10;;;;;;;;;;;;;;;;;;6197666;23;19920;-81
2023/05/04 10:32:47;;;;;;;;;;;;;;;;;;6197599;23;19920;-80
2023/05/04 10:35:28;;;;;;;;;;;;;;;;;;6198012;23;19924;-81
2023/05/04 10:37:58;;;;;;;;;;;;;;;;;;6196838;23;19924;-80
2023/05/04 10:40:36;;;;;;;;;;;;;;;;;;6197375;23;19924;-80
2023/05/04 10:43:03;;;;;;;;;;;;;;;;;;6224221;23;19926;-80
2023/05/04 10:45:36;;;;;;;;;;;;;;;;;;6197040;23;19920;-80
2023/05/04 10:48:07;;;;;;;;;;;;;;;;;;6197007;23;19920;-80
2023/05/04 10:51:05;;;;;;;;;;;;;;;;;;6170757;23;19920;-82
2023/05/04 10:53:35;;;;;;;;;;;;;;;;;;6197029;23;19926;-82
2023/05/04 10:56:02;;;;;;;;;;;;;;;;;;6196512;23;19942;-82
2023/05/04 10:58:31;;;;;;;;;;;;;;;;;;6196515;23;19920;-82
2023/05/04 11:00:58;;;;;;;;;;;;;;;;;;6195981;23;19924;-81
2023/05/04 11:03:26;;;;;;;;;;;;;;;;;;6196898;23;19920;-82
2023/05/04 11:05:56;;;;;;;;;;;;;;;;;;6195105;23;19919;-81
2023/05/04 11:08:25;;;;;;;;;;;;;;;;;;6196845;23;19920;-81
2023/05/04 11:11:00;;;;;;;;;;;;;;;;;;6196226;23;19920;-82
2023/05/04 11:13:35;;;;;;;;;;;;;;;;;;6196808;23;19920;-82
2023/05/04 11:16:08;;;;;;;;;;;;;;;;;;6220389;23;19924;-82
2023/05/04 11:18:37;;;;;;;;;;;;;;;;;;6195803;23;19926;-81
2023/05/04 11:21:12;;;;;;;;;;;;;;;;;;6169631;23;19927;-80
2023/05/04 11:23:39;;;;;;;;;;;;;;;;;;6196898;23;20287;-80
2023/05/04 11:26:07;;;;;;;;;;;;;;;;;;6196302;23;19924;-81
2023/05/04 11:28:34;;;;;;;;;;;;;;;;;;6223577;23;19926;-80
2023/05/04 11:31:14;;;;;;;;;;;;;;;;;;6195240;23;19926;-80
2023/05/04 11:33:46;;;;;;;;;;;;;;;;;;6197610;23;19920;-80
2023/05/04 11:36:16;;;;;;;;;;;;;;;;;;6196009;23;19919;-81
2023/05/04 11:38:43;;;;;;;;;;;;;;;;;;6172373;23;19920;-80
2023/05/04 11:41:11;;;;;;;;;;;;;;;;;;6196662;23;20268;-81
2023/05/04 11:43:38;;;;;;;;;;;;;;;;;;6197003;23;19927;-80
2023/05/04 11:46:05;;;;;;;;;;;;;;;;;;6195236;23;19919;-82
2023/05/04 11:48:37;;;;;;;;;;;;;;;;;;6195090;23;20274;-82
2023/05/04 11:51:06;;;;;;;;;;;;;;;;;;6193962;23;19926;-80
2023/05/04 11:53:37;;;;;;;;;;;;;;;;;;6197277;23;19927;-80
2023/05/04 11:56:07;;;;;;;;;;;;;;;;;;6233559;23;19919;-80
2023/05/04 11:58:39;;;;;;;;;;;;;;;;;;6227091;23;19924;-80
2023/05/04 12:01:11;;;;;;;;;;;;;;;;;;6232106;23;19941;-80
2023/05/04 12:03:40;;;;;;;;;;;;;;;;;;6195950;23;19920;-80
2023/05/04 12:06:19;;;;;;;;;;;;;;;;;;6172229;23;19920;-80
2023/05/04 12:09:01;;;;;;;;;;;;;;;;;;6199975;23;19927;-80
2023/05/04 12:11:56;;;;;;;;;;;;;;;;;;6196801;23;19920;-80
2023/05/04 12:14:27;;;;;;;;;;;;;;;;;;6197115;23;19939;-80
2023/05/04 12:16:55;;;;;;;;;;;;;;;;;;6172845;23;19920;-80
2023/05/04 12:19:21;;;;;;;;;;;;;;;;;;6196722;23;19920;-80
2023/05/04 12:21:51;;;;;;;;;;;;;;;;;;6226765;23;19920;-80
2023/05/04 12:24:20;;;;;;;;;;;;;;;;;;6206241;23;19920;-80
2023/05/04 12:26:52;;;;;;;;;;;;;;;;;;6196013;23;19924;-81
2023/05/04 12:29:21;;;;;;;;;;;;;;;;;;6195733;23;20278;-80
2023/05/04 12:31:51;;;;;;;;;;;;;;;;;;6194210;23;20337;-80
2023/05/04 12:34:21;;;;;;;;;;;;;;;;;;6195179;23;19920;-81
2023/05/04 12:36:53;;;;;;;;;;;;;;;;;;6195782;23;19920;-80
2023/05/04 12:39:22;;;;;;;;;;;;;;;;;;6194948;23;19920;-80
2023/05/04 12:41:49;;;;;;;;;;;;;;;;;;6205106;23;20237;-80
2023/05/04 12:44:17;;;;;;;;;;;;;;;;;;6193689;23;19927;-80
2023/05/04 12:46:44;;;;;;;;;;;;;;;;;;6193846;23;19920;-80
2023/05/04 12:49:14;;;;;;;;;;;;;;;;;;6221853;23;19924;-80
2023/05/04 12:51:41;;;;;;;;;;;;;;;;;;6194424;23;19920;-81
2023/05/04 12:54:09;;;;;;;;;;;;;;;;;;6193665;23;19920;-80
2023/05/04 12:56:39;;;;;;;;;;;;;;;;;;6195058;23;19924;-80
2023/05/04 12:59:06;;;;;;;;;;;;;;;;;;6193524;23;20399;-80
2023/05/04 13:01:35;;;;;;;;;;;;;;;;;;6196657;23;19920;-80
2023/05/04 13:04:02;;;;;;;;;;;;;;;;;;6194259;23;20299;-80
2023/05/04 13:06:30;;;;;;;;;;;;;;;;;;6226850;23;19934;-80
2023/05/04 13:09:04;;;;;;;;;;;;;;;;;;6213592;23;19965;-79
2023/05/04 13:11:32;;;;;;;;;;;;;;;;;;6212692;23;19918;-80
2023/05/04 13:14:00;;;;;;;;;;;;;;;;;;6209573;23;19930;-79
2023/05/04 13:16:29;;;;;;;;;;;;;;;;;;6170543;23;19920;-80
2023/05/04 13:18:58;;;;;;;;;;;;;;;;;;6210843;23;20229;-79
2023/05/04 13:21:25;;;;;;;;;;;;;;;;;;6203913;23;19920;-80
2023/05/04 13:23:58;;;;;;;;;;;;;;;;;;6207917;23;20348;-80
2023/05/04 13:26:27;;;;;;;;;;;;;;;;;;6196289;23;19931;-80
2023/05/04 13:28:55;;;;;;;;;;;;;;;;;;6194809;23;20359;-80
2023/05/04 13:31:22;;;;;;;;;;;;;;;;;;6196057;23;19920;-80
2023/05/04 13:33:52;;;;;;;;;;;;;;;;;;6196128;23;19923;-80
2023/05/04 13:36:19;;;;;;;;;;;;;;;;;;6194990;23;19920;-80
2023/05/04 13:38:47;;;;;;;;;;;;;;;;;;6197470;23;19927;-82
2023/05/04 13:41:14;;;;;;;;;;;;;;;;;;6222442;23;19920;-81
2023/05/04 13:43:41;;;;;;;;;;;;;;;;;;6196749;23;19930;-81
2023/05/04 13:46:12;;;;;;;;;;;;;;;;;;6196761;23;20256;-81
2023/05/04 13:48:39;;;;;;;;;;;;;;;;;;6196745;23;19967;-82
2023/05/04 13:51:12;;;;;;;;;;;;;;;;;;6197263;23;20357;-81
2023/05/04 13:53:39;;;;;;;;;;;;;;;;;;6197229;23;19920;-81
2023/05/04 13:56:06;;;;;;;;;;;;;;;;;;6223034;23;19920;-81
2023/05/04 13:58:35;;;;;;;;;;;;;;;;;;6169864;23;19928;-81
2023/05/04 14:01:02;;;;;;;;;;;;;;;;;;6195301;23;19926;-81
2023/05/04 14:03:32;;;;;;;;;;;;;;;;;;6195585;23;19920;-81
2023/05/04 14:06:02;;;;;;;;;;;;;;;;;;6195851;23;20256;-81
2023/05/04 14:08:34;;;;;;;;;;;;;;;;;;6195257;23;19920;-81
2023/05/04 14:11:02;;;;;;;;;;;;;;;;;;6194835;23;19920;-81
2023/05/04 14:13:29;;;;;;;;;;;;;;;;;;6170756;23;19924;-81
2023/05/04 14:15:58;;;;;;;;;;;;;;;;;;6206052;23;19920;-81
2023/05/04 14:18:26;;;;;;;;;;;;;;;;;;6195516;23;19924;-81
2023/05/04 14:20:55;;;;;;;;;;;;;;;;;;6194619;23;19920;-81
2023/05/04 14:23:22;;;;;;;;;;;;;;;;;;6193958;23;19927;-81
2023/05/04 14:25:54;;;;;;;;;;;;;;;;;;6194173;23;19926;-81
2023/05/04 14:28:22;;;;;;;;;;;;;;;;;;6221136;23;19932;-81
2023/05/04 14:30:49;;;;;;;;;;;;;;;;;;6194068;23;20265;-81
2023/05/04 14:33:20;;;;;;;;;;;;;;;;;;6230851;23;19920;-81
2023/05/04 14:35:50;;;;;;;;;;;;;;;;;;6196014;23;19920;-81
2023/05/04 14:38:30;;;;;;;;;;;;;;;;;;6195318;23;19920;-81
2023/05/04 14:41:13;;;;;;;;;;;;;;;;;;6221789;23;19924;-81
2023/05/04 14:43:40;;;;;;;;;;;;;;;;;;6194867;23;19923;-81
2023/05/04 14:46:13;;;;;;;;;;;;;;;;;;6170850;23;19920;-81
2023/05/04 14:48:40;;;;;;;;;;;;;;;;;;6195261;23;19924;-81
2023/05/04 14:51:38;;;;;;;;;;;;;;;;;;6231092;23;19920;-81
2023/05/04 14:54:15;;;;;;;;;;;;;;;;;;6195251;23;19967;-81
2023/05/04 14:57:07;;;;;;;;;;;;;;;;;;6194744;23;19923;-81
2023/05/04 14:59:58;;;;;;;;;;;;;;;;;;6199024;23;19920;-80
2023/05/04 15:02:57;;;;;;;;;;;;;;;;;;6195376;23;19920;-81
2023/05/04 15:05:26;;;;;;;;;;;;;;;;;;6195222;23;19920;-82
2023/05/04 15:07:55;;;;;;;;;;;;;;;;;;6201694;23;20200;-81
2023/05/04 15:10:55;;;;;;;;;;;;;;;;;;6194830;23;19938;-81
2023/05/04 15:14:00;;;;;;;;;;;;;;;;;;6195032;23;20482;-82
2023/05/04 15:16:52;;;;;;;;;;;;;;;;;;6195799;23;19924;-81
2023/05/04 15:19:20;;;;;;;;;;;;;;;;;;6221955;23;19920;-82
2023/05/04 15:21:47;;;;;;;;;;;;;;;;;;6168266;23;19920;-81
2023/05/04 15:24:14;;;;;;;;;;;;;;;;;;6222097;23;19931;-82
2023/05/04 15:26:41;;;;;;;;;;;;;;;;;;6221168;23;19931;-81
2023/05/04 15:29:12;;;;;;;;;;;;;;;;;;6194389;23;19924;-81
2023/05/04 15:31:39;;;;;;;;;;;;;;;;;;6194111;23;19920;-81
2023/05/04 15:34:06;;;;;;;;;;;;;;;;;;6194610;23;19920;-82
2023/05/04 15:36:33;;;;;;;;;;;;;;;;;;6195043;23;20248;-80
2023/05/04 15:39:29;;;;;;;;;;;;;;;;;;6221809;23;19920;-82
2023/05/04 15:41:59;;;;;;;;;;;;;;;;;;6220285;23;19920;-80
2023/05/04 15:44:35;;;;;;;;;;;;;;;;;;6193882;23;19924;-81
2023/05/04 15:47:39;;;;;;;;;;;;;;;;;;6209078;23;19931;-81
2023/05/04 15:50:30;;;;;;;;;;;;;;;;;;6194407;23;19924;-82
2023/05/04 15:53:06;;;;;;;;;;;;;;;;;;6195222;23;19920;-82
2023/05/04 15:55:56;;;;;;;;;;;;;;;;;;6198939;23;19927;-80
2023/05/04 15:58:23;;;;;;;;;;;;;;;;;;6194375;23;19920;-82
2023/05/04 16:00:58;;;;;;;;;;;;;;;;;;6193294;23;19920;-82
2023/05/04 16:03:27;;;;;;;;;;;;;;;;;;6193596;23;20299;-81
2023/05/04 16:05:57;;;;;;;;;;;;;;;;;;6194571;23;19942;-81
2023/05/04 16:08:39;;;;;;;;;;;;;;;;;;6193684;23;19924;-82
2023/05/04 16:11:29;;;;;;;;;;;;;;;;;;6191432;23;19926;-82
2023/05/04 16:13:56;;;;;;;;;;;;;;;;;;6193903;23;20345;-82
2023/05/04 16:16:26;;;;;;;;;;;;;;;;;;6193716;23;19920;-82
2023/05/04 16:18:56;;;;;;;;;;;;;;;;;;6196337;23;19927;-81
2023/05/04 16:21:25;;;;;;;;;;;;;;;;;;6169541;23;20272;-81
2023/05/04 16:23:52;;;;;;;;;;;;;;;;;;6194534;23;19924;-81
2023/05/04 16:26:20;;;;;;;;;;;;;;;;;;6193962;23;19924;-80
2023/05/04 16:28:46;;;;;;;;;;;;;;;;;;6192423;23;19930;-81
2023/05/04 16:31:14;;;;;;;;;;;;;;;;;;6196280;23;20342;-80
2023/05/04 16:33:46;;;;;;;;;;;;;;;;;;6195142;23;19924;-80
2023/05/04 16:36:13;;;;;;;;;;;;;;;;;;6231781;23;19924;-80
2023/05/04 16:38:40;;;;;;;;;;;;;;;;;;6195200;23;19927;-80
2023/05/04 16:41:07;;;;;;;;;;;;;;;;;;6194759;23;19920;-80
2023/05/04 16:43:36;;;;;;;;;;;;;;;;;;6194349;23;19920;-80
2023/05/04 16:46:05;;;;;;;;;;;;;;;;;;6194939;23;19920;-80
2023/05/04 16:48:32;;;;;;;;;;;;;;;;;;6191765;23;19934;-80
2023/05/04 16:51:03;;;;;;;;;;;;;;;;;;6221533;23;19920;-80
2023/05/04 16:53:30;;;;;;;;;;;;;;;;;;6196681;23;19927;-80
2023/05/04 16:55:59;;;;;;;;;;;;;;;;;;6197178;23;19920;-80
2023/05/04 16:58:27;;;;;;;;;;;;;;;;;;6198181;23;19924;-80
2023/05/04 17:00:54;;;;;;;;;;;;;;;;;;6196997;23;19920;-80
2023/05/04 17:03:23;;;;;;;;;;;;;;;;;;6197543;23;19928;-80
2023/05/04 17:05:52;;;;;;;;;;;;;;;;;;6197525;23;20125;-80
2023/05/04 17:08:23;;;;;;;;;;;;;;;;;;6196842;23;19923;-79
2023/05/04 17:10:50;;;;;;;;;;;;;;;;;;6196866;23;19927;-79
2023/05/04 17:13:17;;;;;;;;;;;;;;;;;;6223761;23;19920;-79
2023/05/04 17:15:44;;;;;;;;;;;;;;;;;;6197914;23;19920;-79
2023/05/04 17:18:11;;;;;;;;;;;;;;;;;;6197632;23;19920;-80